Time;durP1;ratioP1;P1;durP2;ratioP2;P2;SDS_P1;SDS_P2;PMS_P1;PMS_P2;Temp;Humidity;BMP_temperature;BMP_pressure;BME280_temperature;BME280_humidity;BME280_pressure;Samples;Min_cycle;Max_cycle;Signal;HPM_P1;HPM_P2
2021/03/23 00:02:26;;;;;;;4.93;3.57;;;7.60;34.60;;;;;;10487917;28;20231;-72
2021/03/23 00:07:29;;;;;;;5.47;3.60;;;7.60;34.70;;;;;;10492631;28;20256;-72
2021/03/23 00:12:31;;;;;;;6.30;3.67;;;7.50;34.60;;;;;;10488861;28;20327;-72
2021/03/23 00:17:34;;;;;;;6.00;3.80;;;7.50;34.70;;;;;;10490673;28;20599;-72
2021/03/23 00:22:37;;;;;;;4.60;3.17;;;7.50;34.90;;;;;;10485418;28;20220;-72
2021/03/23 00:27:40;;;;;;;4.53;3.40;;;7.50;34.80;;;;;;10488483;28;20307;-72
2021/03/23 00:32:43;;;;;;;4.77;3.57;;;7.50;35.00;;;;;;10491400;28;20217;-72
2021/03/23 00:37:50;;;;;;;5.77;4.00;;;7.40;35.00;;;;;;10491650;28;20232;-72
2021/03/23 00:42:52;;;;;;;6.13;4.00;;;7.40;35.30;;;;;;10488687;28;20235;-72
2021/03/23 00:47:55;;;;;;;6.77;4.13;;;7.40;35.10;;;;;;10489170;28;20312;-72
2021/03/23 00:52:58;;;;;;;9.83;5.90;;;7.40;35.30;;;;;;10490798;28;20719;-72
2021/03/23 00:58:00;;;;;;;7.77;5.17;;;7.40;35.30;;;;;;10489142;28;20236;-72
2021/03/23 01:03:04;;;;;;;8.53;5.63;;;7.40;35.30;;;;;;10488525;28;20224;-72
2021/03/23 01:08:07;;;;;;;7.07;5.03;;;7.40;35.50;;;;;;10491043;28;20266;-72
2021/03/23 01:13:10;;;;;;;8.53;5.77;;;7.40;35.40;;;;;;10487405;28;20224;-72
2021/03/23 01:18:13;;;;;;;8.33;5.77;;;7.50;35.40;;;;;;10487647;28;20315;-72
2021/03/23 01:23:15;;;;;;;7.97;5.67;;;7.50;35.50;;;;;;10486250;28;20311;-72
2021/03/23 01:28:17;;;;;;;9.80;6.20;;;7.50;35.40;;;;;;10487221;28;20308;-72
2021/03/23 01:33:20;;;;;;;6.90;5.30;;;7.50;35.40;;;;;;10490407;28;20251;-72
2021/03/23 01:38:23;;;;;;;9.20;5.70;;;7.50;35.50;;;;;;10486208;28;20239;-71
2021/03/23 01:43:28;;;;;;;9.43;5.70;;;7.50;35.50;;;;;;10489692;28;20225;-72
2021/03/23 01:48:33;;;;;;;9.17;6.03;;;7.50;35.80;;;;;;10487630;28;20229;-72
2021/03/23 01:53:39;;;;;;;7.43;5.50;;;7.50;35.70;;;;;;10489886;28;20222;-72
2021/03/23 01:58:45;;;;;;;6.77;5.53;;;7.50;35.70;;;;;;10482780;28;20216;-73
2021/03/23 02:03:49;;;;;;;9.23;6.00;;;7.50;35.90;;;;;;10479560;28;20227;-73
2021/03/23 02:08:54;;;;;;;6.07;4.80;;;7.40;35.90;;;;;;10486803;28;20278;-73
2021/03/23 02:13:57;;;;;;;8.50;5.57;;;7.40;35.80;;;;;;10488901;28;20227;-73
2021/03/23 02:19:00;;;;;;;8.20;5.57;;;7.50;36.00;;;;;;10485505;28;20307;-73
2021/03/23 02:24:04;;;;;;;8.20;6.30;;;7.50;35.80;;;;;;10481431;28;20242;-73
2021/03/23 02:29:10;;;;;;;8.37;6.00;;;7.50;36.00;;;;;;10490049;28;20622;-73
2021/03/23 02:34:14;;;;;;;7.33;6.30;;;7.60;35.90;;;;;;10492786;28;20235;-73
2021/03/23 02:39:21;;;;;;;6.70;6.00;;;7.60;36.00;;;;;;10490260;28;20220;-73
2021/03/23 02:44:23;;;;;;;6.90;6.03;;;7.60;36.00;;;;;;10490440;28;20224;-73
2021/03/23 02:49:26;;;;;;;7.37;5.93;;;7.50;35.80;;;;;;10493913;28;20224;-73
2021/03/23 02:54:29;;;;;;;8.33;6.33;;;7.60;35.80;;;;;;10492310;28;20599;-73
2021/03/23 02:59:31;;;;;;;8.70;7.03;;;7.50;35.80;;;;;;10493754;28;20230;-73
2021/03/23 03:04:34;;;;;;;9.50;6.23;;;7.60;36.00;;;;;;10485557;28;20311;-73
2021/03/23 03:09:37;;;;;;;8.67;6.57;;;7.60;36.10;;;;;;10495074;28;20224;-73
2021/03/23 03:14:39;;;;;;;8.27;7.43;;;7.60;36.20;;;;;;10489472;28;20595;-73
2021/03/23 03:19:41;;;;;;;7.97;6.50;;;7.60;36.00;;;;;;10492347;28;20327;-73
2021/03/23 03:24:44;;;;;;;8.10;6.70;;;7.60;36.00;;;;;;10494489;28;20234;-73
2021/03/23 03:29:46;;;;;;;7.73;6.70;;;7.50;36.20;;;;;;10491033;28;20232;-73
2021/03/23 03:34:49;;;;;;;10.87;6.93;;;7.50;36.00;;;;;;10492702;28;20222;-73
2021/03/23 03:39:52;;;;;;;8.60;7.03;;;7.50;36.20;;;;;;10489300;28;20733;-73
2021/03/23 03:44:54;;;;;;;8.97;7.20;;;7.50;36.30;;;;;;10490937;28;20224;-73
2021/03/23 03:49:56;;;;;;;8.77;7.33;;;7.60;36.20;;;;;;10492945;28;20710;-73
2021/03/23 03:54:59;;;;;;;8.57;7.30;;;7.50;36.10;;;;;;10488374;28;20225;-73
2021/03/23 04:00:01;;;;;;;10.57;7.53;;;7.50;36.20;;;;;;10489252;28;20229;-73
2021/03/23 04:05:05;;;;;;;10.47;7.43;;;7.50;36.10;;;;;;10491635;28;20232;-73
2021/03/23 04:10:09;;;;;;;10.03;7.70;;;7.40;36.10;;;;;;10490619;28;20235;-73
2021/03/23 04:15:16;;;;;;;10.50;8.43;;;7.40;36.50;;;;;;10492517;28;20259;-73
2021/03/23 04:20:19;;;;;;;13.10;8.20;;;7.30;36.50;;;;;;10487370;28;20224;-73
2021/03/23 04:25:24;;;;;;;9.87;8.20;;;7.20;36.40;;;;;;10490241;28;20493;-73
2021/03/23 04:30:29;;;;;;;10.03;8.33;;;7.20;36.70;;;;;;10490281;28;20239;-73
2021/03/23 04:35:43;;;;;;;10.87;8.13;;;7.20;36.70;;;;;;10487500;28;20240;-73
2021/03/23 04:40:46;;;;;;;10.97;9.00;;;7.10;37.30;;;;;;10489403;28;20220;-73
2021/03/23 04:45:49;;;;;;;10.20;8.83;;;7.20;36.80;;;;;;10486587;28;20250;-73
2021/03/23 04:50:51;;;;;;;11.03;9.93;;;7.20;36.60;;;;;;10489128;28;20232;-73
2021/03/23 04:55:55;;;;;;;13.97;10.40;;;7.20;36.60;;;;;;10486161;28;20229;-73
2021/03/23 05:00:58;;;;;;;13.53;10.40;;;7.20;36.70;;;;;;10485083;28;20633;-73
2021/03/23 05:06:05;;;;;;;11.17;9.80;;;7.10;36.50;;;;;;10485026;28;20749;-73
2021/03/23 05:11:10;;;;;;;17.00;11.47;;;7.10;36.80;;;;;;10487243;28;20224;-73
2021/03/23 05:16:12;;;;;;;15.47;11.17;;;7.00;36.70;;;;;;10489720;28;20311;-73
2021/03/23 05:21:14;;;;;;;14.83;12.07;;;6.90;36.60;;;;;;10486950;28;20297;-73
2021/03/23 05:26:17;;;;;;;18.07;15.30;;;6.90;36.60;;;;;;10486730;28;20234;-73
2021/03/23 05:31:21;;;;;;;15.80;13.23;;;6.80;36.80;;;;;;10489838;28;20236;-73
2021/03/23 05:36:24;;;;;;;14.70;12.03;;;6.70;36.70;;;;;;10485142;28;20235;-73
2021/03/23 05:41:33;;;;;;;16.50;12.10;;;6.70;36.90;;;;;;10489854;28;20228;-73
2021/03/23 05:46:38;;;;;;;16.30;12.23;;;6.70;37.30;;;;;;10486422;28;20235;-73
2021/03/23 05:51:43;;;;;;;14.07;11.67;;;6.70;37.20;;;;;;10478166;28;20225;-74
2021/03/23 05:56:52;;;;;;;19.17;12.80;;;6.60;37.20;;;;;;10489213;28;20228;-73
2021/03/23 06:02:01;;;;;;;15.67;12.67;;;6.60;37.60;;;;;;10478263;28;20235;-73
2021/03/23 06:07:07;;;;;;;14.73;12.43;;;6.60;37.60;;;;;;10537079;28;20215;-73
2021/03/23 06:12:27;;;;;;;38.20;29.57;;;6.50;37.60;;;;;;10536451;28;20230;-73
2021/03/23 06:17:36;;;;;;;24.23;19.03;;;6.50;38.00;;;;;;10536916;28;20219;-73
2021/03/23 06:22:52;;;;;;;23.27;17.53;;;6.50;38.00;;;;;;10533707;28;20272;-73
2021/03/23 06:27:57;;;;;;;20.60;15.67;;;6.40;38.00;;;;;;10529981;28;20698;-73
2021/03/23 06:32:59;;;;;;;21.67;16.83;;;6.40;37.90;;;;;;10536541;28;20223;-72
2021/03/23 06:38:03;;;;;;;19.93;15.73;;;6.40;37.90;;;;;;10538696;28;20281;-72
2021/03/23 06:43:18;;;;;;;20.80;15.83;;;6.40;37.90;;;;;;10533017;28;20753;-72
2021/03/23 06:48:26;;;;;;;19.13;15.63;;;6.50;38.30;;;;;;10536825;28;20232;-73
2021/03/23 06:53:30;;;;;;;20.10;16.17;;;6.50;38.10;;;;;;10534263;28;20245;-73
2021/03/23 06:58:35;;;;;;;18.10;15.07;;;6.60;38.10;;;;;;10534216;28;20228;-73
2021/03/23 07:03:38;;;;;;;20.63;16.50;;;6.60;38.10;;;;;;10531532;28;20220;-71
2021/03/23 07:08:41;;;;;;;21.17;16.37;;;6.60;38.10;;;;;;10531801;28;20603;-71
2021/03/23 07:13:44;;;;;;;23.30;16.63;;;6.70;38.20;;;;;;10532147;28;20298;-71
2021/03/23 07:18:50;;;;;;;20.57;15.67;;;6.70;38.20;;;;;;10535468;28;20238;-71
2021/03/23 07:24:05;;;;;;;21.37;16.03;;;6.80;38.30;;;;;;10530462;28;20682;-71
2021/03/23 07:29:24;;;;;;;21.03;16.20;;;6.90;39.40;;;;;;10534922;28;20237;-71
2021/03/23 07:34:32;;;;;;;20.60;16.33;;;7.10;39.00;;;;;;10530844;28;20332;-71
2021/03/23 07:39:40;;;;;;;18.67;15.47;;;7.20;38.90;;;;;;10530467;28;20238;-71
2021/03/23 07:44:47;;;;;;;18.77;15.50;;;7.40;38.80;;;;;;10531401;28;20302;-71
2021/03/23 07:49:56;;;;;;;17.83;15.63;;;7.50;38.80;;;;;;10531561;28;20223;-71
2021/03/23 07:55:00;;;;;;;16.93;14.17;;;7.60;38.90;;;;;;10532848;28;20268;-71
2021/03/23 08:00:19;;;;;;;17.17;13.67;;;7.70;39.00;;;;;;10528179;28;20579;-71
2021/03/23 08:05:31;;;;;;;16.63;14.13;;;7.80;39.10;;;;;;10532865;28;20226;-71
2021/03/23 08:10:36;;;;;;;19.63;14.93;;;8.00;39.30;;;;;;10529993;28;20599;-71
2021/03/23 08:16:01;;;;;;;20.50;15.50;;;8.20;38.90;;;;;;10529113;28;20227;-71
2021/03/23 08:21:34;;;;;;;17.40;15.17;;;8.20;39.40;;;;;;10527709;28;20223;-71
2021/03/23 08:27:20;;;;;;;16.90;13.93;;;8.20;39.40;;;;;;10531238;28;20227;-71
2021/03/23 08:32:34;;;;;;;23.80;16.57;;;8.30;39.50;;;;;;10512586;28;20310;-71
2021/03/23 08:38:02;;;;;;;18.83;15.47;;;8.30;39.00;;;;;;10530442;28;20605;-71
2021/03/23 08:43:06;;;;;;;17.93;14.90;;;8.30;39.50;;;;;;10524886;28;20578;-70
2021/03/23 08:48:32;;;;;;;17.70;14.63;;;8.40;38.60;;;;;;10531863;28;20310;-70
2021/03/23 08:53:54;;;;;;;17.07;14.03;;;8.40;39.40;;;;;;10528622;28;20215;-69
2021/03/23 08:58:56;;;;;;;17.27;14.30;;;8.40;39.60;;;;;;10530363;28;20230;-69
2021/03/23 09:04:32;;;;;;;17.20;14.23;;;8.40;38.70;;;;;;10523776;28;20707;-69
2021/03/23 09:09:38;;;;;;;16.00;13.50;;;8.50;39.70;;;;;;10527403;28;20228;-69
2021/03/23 09:15:17;;;;;;;17.10;14.13;;;8.60;39.10;;;;;;10524410;28;20246;-69
2021/03/23 09:21:09;;;;;;;18.00;15.00;;;8.70;39.70;;;;;;10522211;28;20583;-69
2021/03/23 09:26:47;;;;;;;16.53;14.57;;;8.80;39.20;;;;;;10525787;28;20463;-68
2021/03/23 09:32:02;;;;;;;16.00;14.07;;;8.80;39.10;;;;;;10525608;28;20239;-69
2021/03/23 09:37:35;;;;;;;18.33;13.83;;;8.90;39.00;;;;;;10527357;28;20220;-69
2021/03/23 09:42:38;;;;;;;16.57;14.13;;;8.90;39.20;;;;;;10529916;28;20216;-69
2021/03/23 09:47:53;;;;;;;15.77;14.17;;;8.90;38.60;;;;;;10524052;27;20322;-69
2021/03/23 09:53:01;;;;;;;16.70;14.57;;;8.90;39.10;;;;;;10526549;28;20215;-69
2021/03/23 09:58:04;;;;;;;16.60;13.30;;;9.00;39.10;;;;;;10522648;28;20228;-69
2021/03/23 10:03:19;;;;;;;15.27;13.73;;;9.00;38.70;;;;;;10524566;28;20216;-69
2021/03/23 10:08:22;;;;;;;16.53;13.73;;;9.10;39.10;;;;;;10527632;28;20623;-69
2021/03/23 10:13:27;;;;;;;15.77;13.33;;;9.10;38.40;;;;;;10526819;28;20223;-69
2021/03/23 10:18:31;;;;;;;16.20;13.57;;;9.20;38.60;;;;;;10528342;28;20242;-69
2021/03/23 10:23:42;;;;;;;16.93;14.03;;;9.30;38.30;;;;;;10529367;28;20235;-69
2021/03/23 10:28:48;;;;;;;13.47;12.07;;;9.30;38.40;;;;;;10521884;28;20223;-69
2021/03/23 10:34:04;;;;;;;14.53;11.83;;;9.20;38.50;;;;;;10530205;28;20596;-69
2021/03/23 10:39:26;;;;;;;12.67;11.27;;;9.30;38.90;;;;;;10526966;28;20600;-69
2021/03/23 10:44:31;;;;;;;13.00;11.27;;;9.40;38.90;;;;;;10528820;28;20222;-69
2021/03/23 10:49:37;;;;;;;14.40;12.47;;;9.50;38.40;;;;;;10527491;28;20227;-69
2021/03/23 10:54:39;;;;;;;13.47;12.03;;;9.60;38.30;;;;;;10535308;28;20226;-69
2021/03/23 10:59:43;;;;;;;16.40;13.13;;;9.60;38.20;;;;;;10534803;28;20755;-68
2021/03/23 11:05:00;;;;;;;16.53;12.87;;;9.60;38.30;;;;;;10531834;28;20257;-69
2021/03/23 11:10:10;;;;;;;16.37;13.27;;;9.70;38.20;;;;;;10530726;28;20228;-69
2021/03/23 11:15:17;;;;;;;14.73;13.13;;;9.70;38.00;;;;;;10536999;28;20764;-69
2021/03/23 11:20:26;;;;;;;14.20;12.70;;;9.80;38.20;;;;;;10534078;28;20951;-69
2021/03/23 11:25:29;;;;;;;14.43;12.13;;;9.80;38.40;;;;;;10537022;28;20232;-69
2021/03/23 11:30:32;;;;;;;15.27;11.57;;;9.90;38.00;;;;;;10533286;28;20219;-69
2021/03/23 11:35:34;;;;;;;14.40;12.00;;;9.90;37.90;;;;;;10536807;28;20250;-69
2021/03/23 11:40:36;;;;;;;13.47;12.00;;;10.00;36.90;;;;;;10529887;28;20703;-69
2021/03/23 11:45:41;;;;;;;13.47;12.03;;;10.00;36.90;;;;;;10533990;28;20223;-69
2021/03/23 11:50:46;;;;;;;13.97;12.07;;;10.10;36.90;;;;;;10528646;27;20272;-69
2021/03/23 11:55:49;;;;;;;12.73;11.43;;;10.20;36.60;;;;;;10517088;27;20238;-69
2021/03/23 12:00:52;;;;;;;13.33;11.33;;;10.20;36.60;;;;;;10519603;27;20361;-69
2021/03/23 12:05:55;;;;;;;12.83;11.50;;;10.20;36.20;;;;;;10535208;28;20228;-69
2021/03/23 12:11:19;;;;;;;14.13;12.03;;;10.30;36.20;;;;;;10532015;28;20215;-69
2021/03/23 12:16:30;;;;;;;13.73;12.33;;;10.30;36.20;;;;;;10532899;28;20309;-69
2021/03/23 12:21:36;;;;;;;16.43;12.90;;;10.30;36.10;;;;;;10529474;28;20226;-69
2021/03/23 12:26:38;;;;;;;14.17;12.47;;;10.40;36.10;;;;;;10527093;28;20219;-69
2021/03/23 12:31:42;;;;;;;13.57;10.80;;;10.40;36.20;;;;;;10531285;28;20224;-69
2021/03/23 12:36:44;;;;;;;13.10;11.03;;;10.50;36.10;;;;;;10529875;28;20782;-69
2021/03/23 12:41:49;;;;;;;12.30;11.07;;;10.50;35.60;;;;;;10531946;28;20226;-69
2021/03/23 12:46:52;;;;;;;12.30;11.00;;;10.50;35.50;;;;;;10529615;28;20220;-69
2021/03/23 12:51:58;;;;;;;11.40;10.17;;;10.60;35.40;;;;;;10531793;28;20251;-69
2021/03/23 12:57:01;;;;;;;11.40;10.10;;;10.60;35.20;;;;;;10530035;28;20227;-69
2021/03/23 13:02:04;;;;;;;11.00;9.90;;;10.60;35.20;;;;;;10528946;28;20238;-69
2021/03/23 13:07:11;;;;;;;10.53;9.43;;;10.60;34.80;;;;;;10529666;28;20271;-69
2021/03/23 13:12:14;;;;;;;10.07;9.17;;;10.60;35.00;;;;;;10529149;28;20226;-69
2021/03/23 13:17:19;;;;;;;11.47;9.43;;;10.60;35.00;;;;;;10532133;28;20322;-69
2021/03/23 13:22:27;;;;;;;13.10;10.47;;;10.60;34.80;;;;;;10530341;28;20227;-69
2021/03/23 13:27:31;;;;;;;10.07;8.77;;;10.50;34.50;;;;;;10527587;28;20284;-69
2021/03/23 13:32:34;;;;;;;8.70;7.90;;;10.50;35.00;;;;;;10531197;28;20289;-69
2021/03/23 13:37:36;;;;;;;12.07;8.63;;;10.50;35.00;;;;;;10524336;28;20238;-69
2021/03/23 13:42:39;;;;;;;8.40;7.60;;;10.60;35.10;;;;;;10530059;28;20638;-69
2021/03/23 13:47:45;;;;;;;8.00;7.20;;;10.60;34.80;;;;;;10527458;28;20292;-69
2021/03/23 13:52:50;;;;;;;7.80;7.10;;;10.60;33.90;;;;;;10528502;28;20224;-69
2021/03/23 13:57:53;;;;;;;8.17;7.33;;;10.60;34.10;;;;;;10525915;28;20235;-70
2021/03/23 14:02:57;;;;;;;8.83;7.93;;;10.60;34.60;;;;;;10514381;28;20629;-71
2021/03/23 14:08:07;;;;;;;8.50;7.63;;;10.70;34.50;;;;;;10481902;28;20728;-69
2021/03/23 14:13:09;;;;;;;8.00;7.20;;;10.80;33.90;;;;;;10487956;28;20691;-69
2021/03/23 14:18:18;;;;;;;7.67;6.67;;;10.80;34.00;;;;;;10485491;28;20224;-69
2021/03/23 14:23:32;;;;;;;7.60;6.80;;;10.70;33.90;;;;;;10487244;28;20273;-69
2021/03/23 14:28:39;;;;;;;7.47;6.77;;;10.70;34.00;;;;;;10492023;28;20227;-69
2021/03/23 14:33:42;;;;;;;8.77;7.83;;;10.70;33.80;;;;;;10493059;28;20234;-69
2021/03/23 14:38:44;;;;;;;8.10;7.30;;;10.70;33.60;;;;;;10491118;28;20224;-69
2021/03/23 14:43:47;;;;;;;7.73;6.70;;;10.70;33.80;;;;;;10492605;28;20231;-69
2021/03/23 14:48:50;;;;;;;8.07;6.50;;;10.70;34.00;;;;;;10495712;28;20217;-70
2021/03/23 14:53:55;;;;;;;7.13;6.40;;;10.70;33.80;;;;;;10493532;28;20232;-70
2021/03/23 14:58:58;;;;;;;7.70;7.00;;;10.70;33.50;;;;;;10489739;28;20243;-71
2021/03/23 15:04:02;;;;;;;7.73;6.93;;;10.70;33.50;;;;;;10482741;28;20220;-70
2021/03/23 15:09:13;;;;;;;7.00;6.30;;;10.70;33.60;;;;;;10490751;28;20255;-70
2021/03/23 15:14:15;;;;;;;7.20;6.50;;;10.70;33.30;;;;;;10495033;28;20221;-70
2021/03/23 15:19:18;;;;;;;6.67;5.97;;;10.70;33.50;;;;;;10489803;28;20232;-70
2021/03/23 15:24:22;;;;;;;6.30;5.70;;;10.80;33.90;;;;;;10490734;28;20589;-70
2021/03/23 15:29:27;;;;;;;5.50;4.90;;;10.70;32.60;;;;;;10484950;28;20695;-70
2021/03/23 15:34:30;;;;;;;5.73;5.20;;;10.70;32.90;;;;;;10489245;28;20730;-70
2021/03/23 15:39:34;;;;;;;6.03;5.43;;;10.70;32.60;;;;;;10493105;28;20224;-70
2021/03/23 15:44:38;;;;;;;5.37;4.90;;;10.70;32.90;;;;;;10490119;28;20223;-70
2021/03/23 15:49:42;;;;;;;5.70;5.20;;;10.70;32.60;;;;;;10483500;28;20617;-70
2021/03/23 15:54:44;;;;;;;5.97;5.20;;;10.70;32.90;;;;;;10490917;28;20249;-70
2021/03/23 15:59:47;;;;;;;5.10;4.60;;;10.80;33.20;;;;;;10489049;28;20228;-70
2021/03/23 16:04:50;;;;;;;5.60;5.10;;;10.80;33.20;;;;;;10491886;28;20228;-70
2021/03/23 16:09:52;;;;;;;7.30;6.23;;;10.80;33.10;;;;;;10488218;28;20707;-70
2021/03/23 16:14:55;;;;;;;7.07;6.43;;;10.80;33.20;;;;;;10485666;28;20230;-70
2021/03/23 16:20:14;;;;;;;6.80;6.20;;;10.90;33.10;;;;;;10482968;28;20220;-70
2021/03/23 16:25:24;;;;;;;6.27;5.67;;;10.90;33.00;;;;;;10484314;28;20232;-70
2021/03/23 16:30:28;;;;;;;6.53;5.70;;;10.90;32.90;;;;;;10480659;28;20235;-70
2021/03/23 16:35:33;;;;;;;8.27;6.97;;;10.90;33.20;;;;;;10485930;28;20959;-69
2021/03/23 16:40:36;;;;;;;6.63;6.00;;;10.90;32.90;;;;;;10484328;28;20220;-69
2021/03/23 16:45:38;;;;;;;7.20;6.50;;;10.90;33.10;;;;;;10485655;28;21576;-70
2021/03/23 16:50:42;;;;;;;8.10;7.17;;;10.80;33.20;;;;;;10475817;28;20228;-69
2021/03/23 16:55:44;;;;;;;9.10;7.93;;;10.80;33.20;;;;;;10489202;28;20269;-69
2021/03/23 17:00:47;;;;;;;7.00;6.30;;;10.80;33.40;;;;;;10484650;28;20236;-69
2021/03/23 17:05:52;;;;;;;7.07;6.37;;;10.80;33.50;;;;;;10488032;28;20662;-69
2021/03/23 17:10:54;;;;;;;6.87;6.17;;;10.80;33.30;;;;;;10490632;28;20605;-70
2021/03/23 17:15:56;;;;;;;7.97;7.17;;;10.80;33.40;;;;;;10489772;28;20242;-70
2021/03/23 17:20:59;;;;;;;9.00;7.63;;;10.80;33.40;;;;;;10490166;28;20231;-70
2021/03/23 17:26:03;;;;;;;9.00;7.20;;;10.80;33.40;;;;;;10484477;28;20222;-70
2021/03/23 17:31:09;;;;;;;8.13;6.57;;;10.80;33.60;;;;;;10490051;28;20226;-71
2021/03/23 17:36:16;;;;;;;8.63;7.47;;;10.90;33.60;;;;;;10487794;28;20220;-71
2021/03/23 17:41:19;;;;;;;8.83;7.63;;;10.90;33.50;;;;;;10489219;28;20651;-71
2021/03/23 17:46:21;;;;;;;10.80;9.13;;;10.90;33.70;;;;;;10487747;28;20327;-71
2021/03/23 17:51:25;;;;;;;17.67;13.87;;;10.90;33.70;;;;;;10485031;28;20285;-71
2021/03/23 17:56:27;;;;;;;18.33;14.93;;;10.90;33.50;;;;;;10485604;28;20228;-71
2021/03/23 18:01:30;;;;;;;13.33;10.30;;;10.90;33.70;;;;;;10495211;28;20312;-71
2021/03/23 18:06:33;;;;;;;10.53;9.27;;;10.80;33.50;;;;;;10495192;28;20311;-71
2021/03/23 18:11:36;;;;;;;11.03;9.13;;;10.80;33.40;;;;;;10497458;28;20323;-71
2021/03/23 18:16:38;;;;;;;9.53;8.53;;;10.80;33.60;;;;;;10494665;28;20230;-71
2021/03/23 18:21:42;;;;;;;10.90;9.80;;;10.80;33.70;;;;;;10483752;28;20221;-71
2021/03/23 18:26:44;;;;;;;15.20;12.27;;;10.80;33.70;;;;;;10483697;28;20232;-71
2021/03/23 18:31:48;;;;;;;11.57;10.23;;;10.80;33.60;;;;;;10496819;28;20239;-71
2021/03/23 18:36:51;;;;;;;11.17;10.07;;;10.80;33.80;;;;;;10489583;28;20229;-71
2021/03/23 18:41:54;;;;;;;9.87;8.87;;;10.70;33.60;;;;;;10495996;28;20220;-71
2021/03/23 18:46:56;;;;;;;8.90;8.00;;;10.70;33.80;;;;;;10485421;28;20312;-70
2021/03/23 18:51:59;;;;;;;8.57;7.13;;;10.70;33.70;;;;;;10492206;28;20227;-70
2021/03/23 18:57:02;;;;;;;8.77;7.50;;;10.70;33.80;;;;;;10491790;28;20224;-70
2021/03/23 19:02:04;;;;;;;7.70;7.00;;;10.70;33.80;;;;;;10493310;28;20228;-69
2021/03/23 19:07:11;;;;;;;10.73;8.63;;;10.70;33.70;;;;;;10493684;28;20227;-70
2021/03/23 19:12:13;;;;;;;11.33;9.60;;;10.60;33.70;;;;;;10493926;28;20228;-70
2021/03/23 19:17:16;;;;;;;10.80;8.53;;;10.60;33.80;;;;;;10488695;28;20307;-70
2021/03/23 19:22:19;;;;;;;8.47;7.53;;;10.60;33.90;;;;;;10493216;28;20251;-69
2021/03/23 19:27:21;;;;;;;9.80;7.83;;;10.60;33.90;;;;;;10491859;28;20318;-69
2021/03/23 19:32:24;;;;;;;8.90;7.07;;;10.60;34.00;;;;;;10489457;28;20580;-69
2021/03/23 19:37:27;;;;;;;10.30;8.37;;;10.60;33.90;;;;;;10492430;28;20290;-69
2021/03/23 19:42:29;;;;;;;8.37;7.27;;;10.60;33.80;;;;;;10491902;28;20228;-70
2021/03/23 19:47:31;;;;;;;7.77;7.07;;;10.40;33.70;;;;;;10493718;28;20217;-70
2021/03/23 19:52:34;;;;;;;7.47;6.70;;;10.30;33.80;;;;;;10489784;28;20714;-70
2021/03/23 19:57:37;;;;;;;7.27;6.57;;;10.20;34.10;;;;;;10489152;28;20252;-70
2021/03/23 20:02:39;;;;;;;7.80;6.50;;;10.20;34.10;;;;;;10493181;28;20311;-70
2021/03/23 20:07:42;;;;;;;7.83;7.13;;;10.20;34.10;;;;;;10491031;28;20266;-70
2021/03/23 20:12:44;;;;;;;7.70;7.00;;;10.20;34.10;;;;;;10479936;28;20304;-69
2021/03/23 20:17:46;;;;;;;8.63;7.73;;;10.20;34.10;;;;;;10483331;28;20224;-69
2021/03/23 20:22:50;;;;;;;7.67;6.97;;;10.20;34.00;;;;;;10480328;28;20231;-69
2021/03/23 20:27:53;;;;;;;8.90;7.93;;;10.20;34.10;;;;;;10477380;28;20232;-69
2021/03/23 20:33:14;;;;;;;8.13;7.07;;;10.10;34.00;;;;;;10477379;28;20219;-69
2021/03/23 20:38:20;;;;;;;9.13;7.43;;;10.20;34.10;;;;;;10479211;28;20228;-71
2021/03/23 20:43:26;;;;;;;8.23;6.90;;;10.10;34.00;;;;;;10481867;28;20256;-69
2021/03/23 20:48:29;;;;;;;9.07;7.53;;;10.10;34.00;;;;;;10477612;28;20243;-70
2021/03/23 20:53:33;;;;;;;10.00;8.90;;;10.10;34.00;;;;;;10481587;28;20224;-69
2021/03/23 20:58:35;;;;;;;16.43;12.90;;;10.10;34.00;;;;;;10480503;28;20239;-69
2021/03/23 21:03:37;;;;;;;14.63;11.33;;;10.10;34.10;;;;;;10482620;28;20323;-70
2021/03/23 21:08:57;;;;;;;12.90;9.80;;;10.10;34.10;;;;;;10480337;28;20224;-69
2021/03/23 21:14:03;;;;;;;16.33;11.40;;;10.10;34.40;;;;;;10479680;28;20220;-69
2021/03/23 21:19:08;;;;;;;13.67;10.37;;;10.10;34.50;;;;;;10482918;28;20671;-70
2021/03/23 21:24:13;;;;;;;9.90;8.90;;;10.10;34.50;;;;;;10481201;28;20296;-70
2021/03/23 21:29:15;;;;;;;9.00;7.77;;;10.10;34.50;;;;;;10480838;28;20731;-69
2021/03/23 21:34:19;;;;;;;9.17;7.80;;;10.10;34.50;;;;;;10481186;28;20225;-69
2021/03/23 21:39:22;;;;;;;9.30;8.30;;;10.10;34.50;;;;;;10483028;28;20599;-69
2021/03/23 21:44:24;;;;;;;10.10;8.03;;;10.00;34.60;;;;;;10479749;28;20681;-69
2021/03/23 21:49:27;;;;;;;9.03;7.40;;;10.00;34.60;;;;;;10482243;28;20258;-70
2021/03/23 21:54:30;;;;;;;13.03;11.03;;;9.90;35.70;;;;;;10478697;28;20224;-70
2021/03/23 21:59:32;;;;;;;10.17;9.17;;;9.90;35.70;;;;;;10479428;28;20716;-69
2021/03/23 22:04:36;;;;;;;9.93;8.73;;;9.80;35.40;;;;;;10484153;28;20220;-69
2021/03/23 22:09:39;;;;;;;10.60;8.73;;;9.70;35.50;;;;;;10480819;28;20250;-69
2021/03/23 22:14:41;;;;;;;9.20;8.23;;;9.60;35.70;;;;;;10476271;28;20220;-69
2021/03/23 22:19:47;;;;;;;11.40;9.07;;;9.50;35.80;;;;;;10479805;28;20640;-69
2021/03/23 22:24:50;;;;;;;10.17;8.67;;;9.50;36.00;;;;;;10479782;28;20232;-69
2021/03/23 22:29:52;;;;;;;8.23;7.37;;;9.50;36.10;;;;;;10479634;28;20609;-69
2021/03/23 22:34:54;;;;;;;8.67;7.77;;;9.50;36.10;;;;;;10481107;28;20358;-69
2021/03/23 22:39:57;;;;;;;11.33;8.20;;;9.60;36.10;;;;;;10481344;28;20347;-69
2021/03/23 22:44:59;;;;;;;10.27;8.83;;;9.60;36.30;;;;;;10482721;28;20238;-69
2021/03/23 22:50:01;;;;;;;9.63;8.73;;;9.70;36.20;;;;;;10490116;28;20225;-69
2021/03/23 22:55:06;;;;;;;11.17;9.63;;;9.70;36.10;;;;;;10486501;28;20235;-70
2021/03/23 23:00:18;;;;;;;8.87;7.90;;;9.60;36.20;;;;;;10488030;28;20220;-70
2021/03/23 23:05:21;;;;;;;9.73;8.73;;;9.50;36.30;;;;;;10488312;28;20221;-69
2021/03/23 23:10:26;;;;;;;9.30;8.40;;;9.50;36.10;;;;;;10485765;28;20230;-70
2021/03/23 23:16:06;;;;;;;9.30;8.40;;;9.50;36.30;;;;;;10487419;28;20228;-69
2021/03/23 23:21:13;;;;;;;10.53;8.23;;;9.50;36.40;;;;;;10474095;28;20327;-70
2021/03/23 23:26:19;;;;;;;10.33;9.07;;;9.50;36.30;;;;;;10484332;28;20220;-70
2021/03/23 23:31:23;;;;;;;11.37;8.97;;;9.50;36.20;;;;;;10489271;28;20228;-69
2021/03/23 23:36:26;;;;;;;10.53;8.87;;;9.50;36.20;;;;;;10483059;28;20232;-70
2021/03/23 23:41:29;;;;;;;10.03;8.97;;;9.40;36.30;;;;;;10486736;28;20266;-69
2021/03/23 23:46:31;;;;;;;11.73;9.03;;;9.30;36.30;;;;;;10482774;28;20232;-69
2021/03/23 23:51:34;;;;;;;10.47;8.60;;;9.30;36.30;;;;;;10486540;28;20220;-69
2021/03/23 23:56:37;;;;;;;10.20;8.67;;;9.20;36.50;;;;;;10484280;28;20716;-69
